createdAt,value
2019-02-27T00:01:30.330Z,7.52
2019-02-27T00:03:57.194Z,7.55
2019-02-27T00:06:23.912Z,7.43
2019-02-27T00:08:50.661Z,7.39
2019-02-27T00:11:17.409Z,7.23
2019-02-27T00:13:44.266Z,7.27
2019-02-27T00:16:11.667Z,7.39
2019-02-27T00:18:38.617Z,7.25
2019-02-27T00:21:05.355Z,7.28
2019-02-27T00:23:33.679Z,7.17
2019-02-27T00:26:00.413Z,7.09
2019-02-27T00:28:28.032Z,7.10
2019-02-27T00:30:54.768Z,7.15
2019-02-27T00:33:25.044Z,7.22
2019-02-27T00:35:50.525Z,6.97
2019-02-27T00:38:17.261Z,6.97
2019-02-27T00:40:44.624Z,6.93
2019-02-27T00:43:11.359Z,6.98
2019-02-27T00:45:40.028Z,6.98
2019-02-27T00:48:06.704Z,6.93
2019-02-27T00:50:33.414Z,6.93
2019-02-27T00:53:00.260Z,6.96
2019-02-27T00:55:27.022Z,6.89
2019-02-27T00:57:54.502Z,6.89
2019-02-27T01:00:22.029Z,6.86
2019-02-27T01:02:52.597Z,6.65
2019-02-27T01:05:17.868Z,6.65
2019-02-27T01:07:44.647Z,6.71
2019-02-27T01:10:12.250Z,6.71
2019-02-27T01:12:39.863Z,6.57
2019-02-27T01:15:07.936Z,6.45
2019-02-27T01:17:35.424Z,6.33
2019-02-27T01:20:02.596Z,6.29
2019-02-27T01:22:29.477Z,6.29
2019-02-27T01:24:57.023Z,6.31
2019-02-27T01:27:23.757Z,6.14
2019-02-27T01:29:51.628Z,6.11
2019-02-27T01:32:18.708Z,6.11
2019-02-27T01:34:45.543Z,6.12
2019-02-27T01:37:12.268Z,6.18
2019-02-27T01:39:38.993Z,6.18
2019-02-27T01:42:05.740Z,5.98
2019-02-27T01:44:32.454Z,5.97
2019-02-27T01:47:01.936Z,6.00
2019-02-27T01:49:27.866Z,6.00
2019-02-27T01:51:54.754Z,6.01
2019-02-27T01:54:21.518Z,5.77
2019-02-27T01:56:48.950Z,5.77
2019-02-27T01:59:16.883Z,5.83
2019-02-27T02:01:45.985Z,5.89
2019-02-27T02:04:13.050Z,5.93
2019-02-27T02:06:39.779Z,5.96
2019-02-27T02:09:25.952Z,5.96
2019-02-27T02:11:52.718Z,5.96
2019-02-27T02:14:54.303Z,5.91
2019-02-27T02:17:32.376Z,5.98
2019-02-27T02:20:40.488Z,6.00
2019-02-27T02:23:21.217Z,5.91
2019-02-27T02:26:08.858Z,5.65
2019-02-27T02:29:29.877Z,5.65
2019-02-27T02:32:03.954Z,5.76
2019-02-27T02:35:07.709Z,5.59
2019-02-27T02:38:17.240Z,5.73
2019-02-27T02:41:20.547Z,5.73
2019-02-27T02:45:02.877Z,5.70
2019-02-27T02:47:44.065Z,5.67
2019-02-27T02:50:53.930Z,5.55
2019-02-27T02:54:04.674Z,5.54
2019-02-27T02:56:53.132Z,5.54
2019-02-27T02:59:46.630Z,5.56
2019-02-27T03:02:42.674Z,5.54
2019-02-27T03:06:00.121Z,5.54
2019-02-27T03:08:36.048Z,5.51
2019-02-27T03:11:54.733Z,5.59
2019-02-27T03:14:53.151Z,5.69
2019-02-27T03:17:54.866Z,5.69
2019-02-27T03:21:17.792Z,5.71
2019-02-27T03:23:59.097Z,5.38
2019-02-27T03:27:03.603Z,5.30
2019-02-27T03:30:03.232Z,5.32
2019-02-27T03:32:53.946Z,5.20
2019-02-27T03:35:59.874Z,5.20
2019-02-27T03:39:00.503Z,5.29
2019-02-27T03:42:04.102Z,5.10
2019-02-27T03:44:56.205Z,4.98
2019-02-27T03:48:06.730Z,4.97
2019-02-27T03:50:51.676Z,5.03
2019-02-27T03:53:29.371Z,5.12
2019-02-27T03:56:33.182Z,5.17
2019-02-27T03:59:46.673Z,5.06
2019-02-27T04:02:47.886Z,4.97
2019-02-27T04:05:52.621Z,4.88
2019-02-27T04:08:54.683Z,4.95
2019-02-27T04:11:24.900Z,4.95
2019-02-27T04:13:51.655Z,4.88
2019-02-27T04:16:18.411Z,4.75
2019-02-27T04:18:45.138Z,4.85
2019-02-27T04:21:11.885Z,4.88
2019-02-27T04:23:38.609Z,4.79
2019-02-27T04:26:06.575Z,4.71
2019-02-27T04:28:33.486Z,4.71
2019-02-27T04:31:00.538Z,4.73
2019-02-27T04:33:27.276Z,4.72
2019-02-27T04:35:54.005Z,4.67
2019-02-27T04:38:20.745Z,4.52
2019-02-27T04:40:47.475Z,4.59
2019-02-27T04:43:14.209Z,4.61
2019-02-27T04:45:40.961Z,4.54
2019-02-27T04:48:07.663Z,4.37
2019-02-27T04:50:35.613Z,4.37
2019-02-27T04:53:02.335Z,4.45
2019-02-27T04:55:29.369Z,4.59
2019-02-27T04:57:56.399Z,4.54
2019-02-27T05:00:26.032Z,4.54
2019-02-27T05:02:53.542Z,4.61
2019-02-27T05:05:20.833Z,4.59
2019-02-27T05:07:47.569Z,4.37
2019-02-27T05:10:14.319Z,4.34
2019-02-27T05:12:41.056Z,4.34
2019-02-27T05:15:10.686Z,4.33
2019-02-27T05:17:37.398Z,4.41
2019-02-27T05:20:04.331Z,4.41
2019-02-27T05:22:31.245Z,4.30
2019-02-27T05:24:57.939Z,4.30
2019-02-27T05:27:24.703Z,4.30
2019-02-27T05:29:51.402Z,4.27
2019-02-27T05:32:18.467Z,4.28
2019-02-27T05:34:49.538Z,4.34
2019-02-27T05:37:13.839Z,4.35
2019-02-27T05:39:40.575Z,4.49
2019-02-27T05:42:07.295Z,4.41
2019-02-27T05:44:34.339Z,4.41
2019-02-27T05:47:01.064Z,4.37
2019-02-27T05:49:27.773Z,4.36
2019-02-27T05:51:54.635Z,4.28
2019-02-27T05:54:21.343Z,4.35
2019-02-27T05:56:49.744Z,4.43
2019-02-27T05:59:18.908Z,4.50
2019-02-27T06:01:45.643Z,4.43
2019-02-27T06:04:12.782Z,4.23
2019-02-27T06:06:44.862Z,4.23
2019-02-27T06:09:10.384Z,4.15
2019-02-27T06:11:39.019Z,4.17
2019-02-27T06:14:05.769Z,4.18
2019-02-27T06:16:37.013Z,4.08
2019-02-27T06:19:03.850Z,4.01
2019-02-27T06:21:31.641Z,3.95
2019-02-27T06:23:58.388Z,4.02
2019-02-27T06:26:25.827Z,4.09
2019-02-27T06:28:52.571Z,4.27
2019-02-27T06:31:25.143Z,4.14
2019-02-27T06:33:52.019Z,4.11
2019-02-27T06:36:18.770Z,4.01
2019-02-27T06:38:45.486Z,4.05
2019-02-27T06:41:15.410Z,3.99
2019-02-27T06:43:40.889Z,3.98
2019-02-27T06:46:07.590Z,4.03
2019-02-27T06:48:43.549Z,4.01
2019-02-27T06:51:10.359Z,3.90
2019-02-27T06:54:20.817Z,3.94
2019-02-27T06:56:47.568Z,4.01
2019-02-27T06:59:14.437Z,3.98
2019-02-27T07:01:45.030Z,4.02
2019-02-27T07:04:12.051Z,4.08
2019-02-27T07:06:39.151Z,4.12
2019-02-27T07:09:11.321Z,4.11
2019-02-27T07:11:34.696Z,4.06
2019-02-27T07:14:01.487Z,4.17
2019-02-27T07:16:28.461Z,4.19
2019-02-27T07:18:55.451Z,4.26
2019-02-27T07:21:22.189Z,4.28
2019-02-27T07:23:48.927Z,4.27
2019-02-27T07:26:15.997Z,4.23
2019-02-27T07:28:45.932Z,4.31
2019-02-27T07:31:17.516Z,4.32
2019-02-27T07:33:44.409Z,4.47
2019-02-27T07:36:11.164Z,4.53
2019-02-27T07:38:37.920Z,4.59
2019-02-27T07:41:04.676Z,4.62
2019-02-27T07:43:31.652Z,4.80
2019-02-27T07:45:58.428Z,5.04
2019-02-27T07:48:26.806Z,5.04
2019-02-27T07:50:53.539Z,5.15
2019-02-27T07:53:20.266Z,5.22
2019-02-27T07:55:47.467Z,5.46
2019-02-27T07:58:14.355Z,5.47
2019-02-27T08:00:43.542Z,5.47
2019-02-27T08:03:12.959Z,5.58
2019-02-27T08:05:38.930Z,5.62
2019-02-27T08:08:05.750Z,5.69
2019-02-27T08:10:36.775Z,5.81
2019-02-27T08:13:03.108Z,5.94
2019-02-27T08:15:30.399Z,6.26
2019-02-27T08:17:58.633Z,6.26
2019-02-27T08:20:25.571Z,6.47
2019-02-27T08:22:52.510Z,6.64
2019-02-27T08:25:19.404Z,6.64
2019-02-27T08:27:46.168Z,6.84
2019-02-27T08:30:15.436Z,7.06
2019-02-27T08:32:42.186Z,7.11
2019-02-27T08:35:08.987Z,7.25
2019-02-27T08:37:36.418Z,7.25
2019-02-27T08:40:03.858Z,7.49
2019-02-27T08:42:30.618Z,7.76
2019-02-27T08:44:57.357Z,7.84
2019-02-27T08:47:24.122Z,7.84
2019-02-27T08:49:51.006Z,7.92
2019-02-27T08:52:17.781Z,8.09
2019-02-27T08:54:47.416Z,8.39
2019-02-27T08:57:14.448Z,8.39
2019-02-27T08:59:41.446Z,8.40
2019-02-27T09:02:08.166Z,8.52
2019-02-27T09:04:35.112Z,8.69
2019-02-27T09:07:03.420Z,8.84
2019-02-27T09:09:30.948Z,8.98
2019-02-27T09:11:58.147Z,9.05
2019-02-27T09:14:24.994Z,9.24
2019-02-27T09:16:51.987Z,9.48
2019-02-27T09:19:20.607Z,9.65
2019-02-27T09:21:47.461Z,9.65
2019-02-27T09:24:14.272Z,9.78
2019-02-27T09:26:42.353Z,9.91
2019-02-27T09:29:09.778Z,10.14
2019-02-27T09:31:37.675Z,10.26
2019-02-27T09:34:05.494Z,10.38
2019-02-27T09:36:34.230Z,10.47
2019-02-27T09:39:03.678Z,10.59
2019-02-27T09:41:32.304Z,10.68
2019-02-27T09:44:01.330Z,10.80
2019-02-27T09:46:27.788Z,10.94
2019-02-27T09:48:56.306Z,10.99
2019-02-27T09:51:23.071Z,11.12
2019-02-27T09:53:49.968Z,11.25
2019-02-27T09:56:17.126Z,11.35
2019-02-27T09:58:45.641Z,11.50
2019-02-27T10:01:16.234Z,11.59
2019-02-27T10:03:43.146Z,11.70
2019-02-27T10:06:09.868Z,11.78
2019-02-27T10:08:36.988Z,11.89
2019-02-27T10:11:03.914Z,12.02
2019-02-27T10:13:31.088Z,12.14
2019-02-27T10:16:01.348Z,12.22
2019-02-27T10:18:26.832Z,12.36
2019-02-27T10:20:54.932Z,12.46
2019-02-27T10:23:21.665Z,12.57
2019-02-27T10:25:49.913Z,12.65
2019-02-27T10:28:16.999Z,12.80
2019-02-27T10:30:44.190Z,12.91
2019-02-27T10:33:11.924Z,12.97
2019-02-27T10:35:38.888Z,13.12
2019-02-27T10:38:08.487Z,13.27
2019-02-27T10:40:36.014Z,13.38
2019-02-27T10:43:02.788Z,13.48
2019-02-27T10:45:29.693Z,13.63
2019-02-27T10:47:56.667Z,13.74
2019-02-27T10:50:24.754Z,13.95
2019-02-27T10:52:53.226Z,14.03
2019-02-27T10:55:23.333Z,14.11
2019-02-27T10:57:50.105Z,14.18
2019-02-27T11:00:29.092Z,14.28
2019-02-27T11:02:55.838Z,14.35
2019-02-27T11:05:22.906Z,14.48
2019-02-27T11:07:52.966Z,14.56
2019-02-27T11:10:19.000Z,14.65
2019-02-27T11:12:49.067Z,14.82
2019-02-27T11:15:15.982Z,14.91
2019-02-27T11:17:43.385Z,14.98
2019-02-27T11:20:12.626Z,15.08
2019-02-27T11:22:41.441Z,15.23
2019-02-27T11:25:11.431Z,15.31
2019-02-27T11:27:40.235Z,15.48
2019-02-27T11:30:13.123Z,15.57
2019-02-27T11:32:39.855Z,15.68
2019-02-27T11:35:06.813Z,15.84
2019-02-27T11:37:33.740Z,16.01
2019-02-27T11:40:01.118Z,16.16
2019-02-27T11:42:28.985Z,16.25
2019-02-27T11:44:57.175Z,16.42
2019-02-27T11:47:24.151Z,16.54
2019-02-27T11:49:50.925Z,16.68
2019-02-27T11:52:17.678Z,16.77
2019-02-27T11:54:44.425Z,16.89
2019-02-27T11:57:11.371Z,17.01
2019-02-27T11:59:38.157Z,17.09
2019-02-27T12:02:05.279Z,17.20
2019-02-27T12:04:32.029Z,17.32
2019-02-27T12:06:59.089Z,17.38
2019-02-27T12:09:25.826Z,17.46
2019-02-27T12:11:53.059Z,17.55
2019-02-27T12:14:19.735Z,17.68
2019-02-27T12:16:48.604Z,17.78
2019-02-27T12:19:18.077Z,17.81
2019-02-27T12:21:45.096Z,17.89
2019-02-27T12:24:11.949Z,17.99
2019-02-27T12:26:38.641Z,18.18
2019-02-27T12:29:05.371Z,18.31
2019-02-27T12:31:32.109Z,18.42
2019-02-27T12:34:02.458Z,18.56
2019-02-27T12:36:27.595Z,18.63
2019-02-27T12:38:58.199Z,18.73
2019-02-27T12:41:25.017Z,18.80
2019-02-27T12:43:52.731Z,18.96
2019-02-27T12:46:20.361Z,19.04
2019-02-27T12:48:47.537Z,19.09
2019-02-27T12:51:14.414Z,19.17
2019-02-27T12:53:42.765Z,19.34
2019-02-27T12:56:11.941Z,19.36
2019-02-27T12:58:38.717Z,19.45
2019-02-27T13:01:05.491Z,19.53
2019-02-27T13:03:32.437Z,19.66
2019-02-27T13:06:01.001Z,19.78
2019-02-27T13:08:28.144Z,19.91
2019-02-27T13:10:57.601Z,20.04
2019-02-27T13:13:25.884Z,20.16
2019-02-27T13:15:53.254Z,20.19
2019-02-27T13:18:20.164Z,20.34
2019-02-27T13:20:46.992Z,20.49
2019-02-27T13:23:13.979Z,20.75
2019-02-27T13:25:40.747Z,20.80
2019-02-27T13:28:07.698Z,20.92
2019-02-27T13:30:34.641Z,21.04
2019-02-27T13:33:02.225Z,21.07
2019-02-27T13:35:29.317Z,21.36
2019-02-27T13:37:58.593Z,21.50
2019-02-27T13:40:25.332Z,21.41
2019-02-27T13:42:53.344Z,21.48
2019-02-27T13:45:22.065Z,21.63
2019-02-27T13:47:49.416Z,21.85
2019-02-27T13:50:16.840Z,22.16
2019-02-27T13:52:44.505Z,22.30
2019-02-27T13:55:13.544Z,22.38
2019-02-27T13:57:40.451Z,22.66
2019-02-27T14:00:13.265Z,22.81
2019-02-27T14:02:40.566Z,23.06
2019-02-27T14:05:07.740Z,23.25
2019-02-27T14:07:34.573Z,23.42
2019-02-27T14:10:01.301Z,23.60
2019-02-27T14:12:29.987Z,23.27
2019-02-27T14:14:57.082Z,23.28
2019-02-27T14:17:23.812Z,23.36
2019-02-27T14:19:50.552Z,23.73
2019-02-27T14:22:17.282Z,23.96
2019-02-27T14:24:44.337Z,24.13
2019-02-27T14:27:11.985Z,24.43
2019-02-27T14:29:41.294Z,24.52
2019-02-27T14:32:08.295Z,23.80
2019-02-27T14:34:35.026Z,23.23
2019-02-27T14:37:01.929Z,23.36
2019-02-27T14:39:29.705Z,23.64
2019-02-27T14:41:57.201Z,23.85
2019-02-27T14:44:23.965Z,24.26
2019-02-27T14:46:50.865Z,24.23
2019-02-27T14:49:17.596Z,24.07
2019-02-27T14:51:44.316Z,24.38
2019-02-27T14:54:11.043Z,24.26
2019-02-27T14:56:37.935Z,24.15
2019-02-27T14:59:04.827Z,23.21
2019-02-27T15:01:32.025Z,22.41
2019-02-27T15:04:01.509Z,21.96
2019-02-27T15:06:28.571Z,21.69
2019-02-27T15:08:58.150Z,21.64
2019-02-27T15:11:23.907Z,21.64
2019-02-27T15:13:50.935Z,21.58
2019-02-27T15:16:17.778Z,21.51
2019-02-27T15:18:46.165Z,21.36
2019-02-27T15:21:13.731Z,21.18
2019-02-27T15:23:40.647Z,21.06
2019-02-27T15:26:07.510Z,20.94
2019-02-27T15:28:34.344Z,20.84
2019-02-27T15:31:01.042Z,20.77
2019-02-27T15:33:32.229Z,20.70
2019-02-27T15:35:58.991Z,20.65
2019-02-27T15:38:26.848Z,20.55
2019-02-27T15:40:53.780Z,20.47
2019-02-27T15:43:20.488Z,20.39
2019-02-27T15:45:48.849Z,20.35
2019-02-27T15:48:17.914Z,20.32
2019-02-27T15:50:44.707Z,20.24
2019-02-27T15:53:15.186Z,20.16
2019-02-27T15:55:42.783Z,20.08
2019-02-27T15:58:10.740Z,20.01
2019-02-27T16:00:37.618Z,19.94
2019-02-27T16:03:04.322Z,19.85
2019-02-27T16:05:31.784Z,19.76
2019-02-27T16:07:58.571Z,19.66
2019-02-27T16:10:25.400Z,19.59
2019-02-27T16:12:52.141Z,19.54
2019-02-27T16:15:18.874Z,19.47
2019-02-27T16:17:45.706Z,19.43
2019-02-27T16:20:16.155Z,19.37
2019-02-27T16:22:42.452Z,19.30
2019-02-27T16:25:10.855Z,19.26
2019-02-27T16:27:38.760Z,19.22
2019-02-27T16:30:07.814Z,19.16
2019-02-27T16:32:34.569Z,19.12
2019-02-27T16:35:04.328Z,19.06
2019-02-27T16:37:31.486Z,18.98
2019-02-27T16:39:58.583Z,18.91
2019-02-27T16:42:25.689Z,18.85
2019-02-27T16:44:54.369Z,18.78
2019-02-27T16:47:23.738Z,18.70
2019-02-27T16:49:54.239Z,18.67
2019-02-27T16:52:21.218Z,18.61
2019-02-27T16:54:50.623Z,18.50
2019-02-27T16:57:20.525Z,18.44
2019-02-27T16:59:49.124Z,18.38
2019-02-27T17:02:16.251Z,18.32
2019-02-27T17:04:42.975Z,18.23
2019-02-27T17:07:09.911Z,18.24
2019-02-27T17:09:36.903Z,18.13
2019-02-27T17:12:06.917Z,18.04
2019-02-27T17:14:32.391Z,17.96
2019-02-27T17:16:59.676Z,17.87
2019-02-27T17:19:26.886Z,17.80
2019-02-27T17:21:58.416Z,17.73
2019-02-27T17:24:22.541Z,17.67
2019-02-27T17:26:49.727Z,17.61
2019-02-27T17:29:16.679Z,17.52
2019-02-27T17:31:49.440Z,17.45
2019-02-27T17:34:13.763Z,17.37
2019-02-27T17:36:41.132Z,17.33
2019-02-27T17:39:08.395Z,17.28
2019-02-27T17:41:35.229Z,17.21
2019-02-27T17:44:05.219Z,17.13
2019-02-27T17:46:30.959Z,17.06
2019-02-27T17:48:58.277Z,16.95
2019-02-27T17:51:25.107Z,16.89
2019-02-27T17:53:51.868Z,16.81
2019-02-27T17:56:19.108Z,16.74
2019-02-27T17:58:46.186Z,16.65
2019-02-27T18:01:15.832Z,16.61
2019-02-27T18:03:42.535Z,16.47
2019-02-27T18:06:09.600Z,16.43
2019-02-27T18:08:38.918Z,16.43
2019-02-27T18:11:05.620Z,16.27
2019-02-27T18:13:35.371Z,16.10
2019-02-27T18:16:01.091Z,15.93
2019-02-27T18:18:28.012Z,15.73
2019-02-27T18:20:59.466Z,15.62
2019-02-27T18:23:26.416Z,15.50
2019-02-27T18:25:53.210Z,15.37
2019-02-27T18:28:19.965Z,15.31
2019-02-27T18:30:46.748Z,15.19
2019-02-27T18:33:15.540Z,15.09
2019-02-27T18:35:42.158Z,15.07
2019-02-27T18:38:08.956Z,14.91
2019-02-27T18:40:36.665Z,14.80
2019-02-27T18:43:03.415Z,14.82
2019-02-27T18:45:32.048Z,14.76
2019-02-27T18:47:59.019Z,14.69
2019-02-27T18:50:27.199Z,14.62
2019-02-27T18:52:54.210Z,14.56
2019-02-27T18:55:20.940Z,14.33
2019-02-27T18:57:47.772Z,14.22
2019-02-27T19:00:19.351Z,14.12
2019-02-27T19:02:46.142Z,14.02
2019-02-27T19:05:13.140Z,13.98
2019-02-27T19:07:40.015Z,13.92
2019-02-27T19:10:07.624Z,13.81
2019-02-27T19:12:34.508Z,13.81
2019-02-27T19:15:01.370Z,13.69
2019-02-27T19:17:31.546Z,13.55
2019-02-27T19:19:56.710Z,13.48
2019-02-27T19:22:23.452Z,13.42
2019-02-27T19:24:50.161Z,13.31
2019-02-27T19:27:18.389Z,13.17
2019-02-27T19:29:45.665Z,13.17
2019-02-27T19:32:16.242Z,13.10
2019-02-27T19:34:44.719Z,13.08
2019-02-27T19:37:11.973Z,12.99
2019-02-27T19:39:38.672Z,12.82
2019-02-27T19:42:05.420Z,12.80
2019-02-27T19:44:32.244Z,12.77
2019-02-27T19:46:59.110Z,12.75
2019-02-27T19:49:25.945Z,12.73
2019-02-27T19:51:54.778Z,12.72
2019-02-27T19:54:21.350Z,12.62
2019-02-27T19:56:50.546Z,12.56
2019-02-27T19:59:17.282Z,12.58
2019-02-27T20:01:48.404Z,12.43
2019-02-27T20:04:12.843Z,12.27
2019-02-27T20:06:39.556Z,12.23
2019-02-27T20:09:07.962Z,8.22
2019-02-27T20:11:40.200Z,11.95
2019-02-27T20:14:09.178Z,11.90
2019-02-27T20:16:35.909Z,11.85
2019-02-27T20:19:02.615Z,11.88
2019-02-27T20:21:31.328Z,11.88
2019-02-27T20:24:01.445Z,11.90
2019-02-27T20:26:26.865Z,11.73
2019-02-27T20:28:53.602Z,11.71
2019-02-27T20:31:23.204Z,11.57
2019-02-27T20:33:49.932Z,11.42
2019-02-27T20:36:17.088Z,11.39
2019-02-27T20:38:43.896Z,11.45
2019-02-27T20:41:10.716Z,11.41
2019-02-27T20:43:37.440Z,11.35
2019-02-27T20:46:04.272Z,11.28
2019-02-27T20:48:32.248Z,11.23
2019-02-27T20:51:02.727Z,11.09
2019-02-27T20:53:29.177Z,10.97
2019-02-27T20:55:56.199Z,11.01
2019-02-27T20:58:26.310Z,10.82
2019-02-27T21:00:53.060Z,10.74
2019-02-27T21:03:19.857Z,10.64
2019-02-27T21:05:48.476Z,10.62
2019-02-27T21:08:15.342Z,10.61
2019-02-27T21:10:42.107Z,10.62
2019-02-27T21:13:09.126Z,10.67
2019-02-27T21:15:35.847Z,10.69
2019-02-27T21:18:02.561Z,10.64
2019-02-27T21:20:29.416Z,10.51
2019-02-27T21:22:56.288Z,10.38
2019-02-27T21:25:23.009Z,10.31
2019-02-27T21:27:49.750Z,10.24
2019-02-27T21:30:18.746Z,10.23
2019-02-27T21:32:45.624Z,10.12
2019-02-27T21:35:12.344Z,10.11
2019-02-27T21:37:44.596Z,10.07
2019-02-27T21:40:09.242Z,9.97
2019-02-27T21:42:35.968Z,9.92
2019-02-27T21:45:09.681Z,9.89
2019-02-27T21:47:38.361Z,9.89
2019-02-27T21:50:07.140Z,9.88
2019-02-27T21:52:34.200Z,9.82
2019-02-27T21:55:00.959Z,9.78
2019-02-27T21:57:27.676Z,9.75
2019-02-27T21:59:54.443Z,9.64
2019-02-27T22:02:21.376Z,9.51
2019-02-27T22:04:48.360Z,9.33
2019-02-27T22:07:15.081Z,9.23
2019-02-27T22:09:44.608Z,9.21
2019-02-27T22:12:11.100Z,9.19
2019-02-27T22:14:38.029Z,9.19
2019-02-27T22:17:05.831Z,9.23
2019-02-27T22:19:34.893Z,9.30
2019-02-27T22:22:01.822Z,9.45
2019-02-27T22:24:28.669Z,9.43
2019-02-27T22:26:55.399Z,9.51
2019-02-27T22:29:25.143Z,9.53
2019-02-27T22:31:51.856Z,9.47
2019-02-27T22:34:18.626Z,9.35
2019-02-27T22:36:45.338Z,9.24
2019-02-27T22:39:12.033Z,9.03
2019-02-27T22:41:40.677Z,8.99
2019-02-27T22:44:07.530Z,8.87
2019-02-27T22:46:34.649Z,8.67
2019-02-27T22:49:01.403Z,8.58
2019-02-27T22:51:28.303Z,8.44
2019-02-27T22:53:55.211Z,8.31
2019-02-27T22:56:21.983Z,8.29
2019-02-27T22:58:51.426Z,8.37
2019-02-27T23:01:31.334Z,8.36
2019-02-27T23:04:08.233Z,8.31
2019-02-27T23:06:38.020Z,8.33
2019-02-27T23:09:09.165Z,8.31
2019-02-27T23:11:36.785Z,8.16
2019-02-27T23:14:05.741Z,8.20
2019-02-27T23:16:32.897Z,8.27
2019-02-27T23:18:59.642Z,8.32
2019-02-27T23:21:26.785Z,8.19
2019-02-27T23:23:54.467Z,8.02
2019-02-27T23:26:21.617Z,8.05
2019-02-27T23:28:48.347Z,8.03
2019-02-27T23:31:22.217Z,8.09
2019-02-27T23:33:45.692Z,8.15
2019-02-27T23:36:12.499Z,8.13
2019-02-27T23:38:39.393Z,8.06
2019-02-27T23:41:06.102Z,7.95
2019-02-27T23:43:34.882Z,7.86
2019-02-27T23:46:02.215Z,7.72
2019-02-27T23:48:29.276Z,7.55
2019-02-27T23:50:56.069Z,7.68
2019-02-27T23:53:24.418Z,7.61
2019-02-27T23:55:51.641Z,7.74
2019-02-27T23:58:18.427Z,7.64
